MMSD METAR and TAF | Updated Today

MMSD METAR

Los Cabos International Airport

Observation time: 4:14 hr. ago

MMSD 070449Z 25005KT 8SM SKC 19/15 A3003

Need help? Read our tutorial on how to read METARs or read the parsed version below.

Los Cabos International Airport (MMSD) METAR

  • Weather conditions on Tue, 07 Dec 2021 04:49:00 +0000 (4:14 hr. ago):
  • Present conditions: Dry
  • Clouds: No significant changes expected
  • Visibility: 12875 meters
  • Wind: 250 degrees at 5 knots
  • Temperature: 19 celsius
  • Dew point: 15 celsius
  • Pressure: 30.03 inHg
  • Remarks: None


Useful to know...

MMSD TAF

Los Cabos International Airport

TAF MMSD 070454Z 0706/0806 24005KT P6SM SKC FM071200 32005KT P6SM BKN250 FM080300 24005KT P6SM SKC
Observation time: 4:09 hr. ago
Need help? Read our tutorial on how to read TAFs or read the parsed version below.

Parsed version of TAF for Los Cabos International Airport (MMSD)

  • From 07 December at 06:00 UTC, to day 08 of the month at 06:00 UTC
  • Clouds: No significant changes expected
  • Wind: 240 degrees at 5
  • From day 7 of the month at 12:00 UTC
  • Clouds: Broken sky at 7620 meters
  • Wind: 320 degrees at 5
  • From day 8 of the month at 03:00 UTC
  • Clouds: No significant changes expected
  • Wind: 240 degrees at 5

Airports near MMSD